Time;durP1;ratioP1;P1;durP2;ratioP2;P2;SDS_P1;SDS_P2;PMS_P1;PMS_P2;Temp;Humidity;BMP_temperature;BMP_pressure;BME280_temperature;BME280_humidity;BME280_pressure;Samples;Min_cycle;Max_cycle;Signal;HPM_P1;HPM_P2
2023/04/16 00:01:36;;;;;;;12.17;8.33;;;9.90;1.00;;;;;;5004843;28;20185;-76
2023/04/16 00:04:02;;;;;;;9.93;7.43;;;9.90;1.00;;;;;;5005146;28;20217;-77
2023/04/16 00:06:27;;;;;;;13.33;8.43;;;9.90;1.40;;;;;;5013617;28;20189;-75
2023/04/16 00:08:53;;;;;;;10.70;7.93;;;10.00;1.00;;;;;;5008870;28;20659;-76
2023/04/16 00:11:19;;;;;;;9.70;8.17;;;10.00;1.00;;;;;;5029602;28;20239;-75
2023/04/16 00:13:44;;;;;;;12.63;8.70;;;10.00;1.00;;;;;;5009197;28;20434;-76
2023/04/16 00:16:10;;;;;;;10.73;8.90;;;10.00;1.00;;;;;;5025274;28;20209;-76
2023/04/16 00:18:35;;;;;;;14.67;9.60;;;9.90;1.10;;;;;;5007915;28;20230;-76
2023/04/16 00:21:01;;;;;;;12.73;9.60;;;9.90;2.90;;;;;;5024401;28;20188;-77
2023/04/16 00:23:26;;;;;;;13.40;10.30;;;9.20;2.00;;;;;;5011150;28;20266;-76
2023/04/16 00:25:52;;;;;;;11.30;9.97;;;9.80;2.90;;;;;;5013478;28;20202;-76
2023/04/16 00:28:18;;;;;;;12.90;10.17;;;9.90;7.90;;;;;;5007384;28;20265;-76
2023/04/16 00:30:44;;;;;;;14.00;11.50;;;9.90;7.30;;;;;;5014750;28;20488;-76
2023/04/16 00:33:09;;;;;;;13.43;10.90;;;9.80;8.30;;;;;;5012023;28;20193;-76
2023/04/16 00:35:35;;;;;;;15.93;10.63;;;9.90;7.00;;;;;;5012159;28;20202;-76
2023/04/16 00:38:00;;;;;;;13.70;10.73;;;9.90;8.70;;;;;;5010516;28;20208;-76
2023/04/16 00:40:30;;;;;;;15.70;10.83;;;9.90;7.90;;;;;;5010341;28;20210;-76
2023/04/16 00:42:55;;;;;;;16.70;10.90;;;9.90;8.50;;;;;;5012761;28;20636;-76
2023/04/16 00:45:21;;;;;;;13.47;11.20;;;9.90;6.80;;;;;;5010240;28;20455;-77
2023/04/16 00:47:46;;;;;;;14.23;11.23;;;9.80;8.10;;;;;;5008882;28;20702;-77
2023/04/16 00:50:12;;;;;;;13.77;10.93;;;9.80;8.00;;;;;;5008200;28;20195;-77
2023/04/16 00:52:39;;;;;;;17.00;12.00;;;9.80;10.80;;;;;;5011490;28;20324;-76
2023/04/16 00:55:06;;;;;;;14.57;10.93;;;9.80;10.10;;;;;;5010622;28;20488;-76
2023/04/16 00:57:31;;;;;;;14.10;10.60;;;9.90;10.90;;;;;;5010603;28;20436;-77
2023/04/16 00:59:57;;;;;;;16.83;11.43;;;9.90;10.30;;;;;;5012545;28;20469;-77
2023/04/16 01:02:23;;;;;;;16.80;10.40;;;9.80;10.30;;;;;;5008660;28;20204;-77
2023/04/16 01:04:50;;;;;;;15.43;11.50;;;9.90;9.80;;;;;;5011499;28;20253;-76
2023/04/16 01:07:16;;;;;;;14.60;10.70;;;9.90;11.50;;;;;;5013349;28;20855;-77
2023/04/16 01:09:41;;;;;;;16.30;11.30;;;9.90;10.10;;;;;;5017230;28;20496;-76
2023/04/16 01:12:07;;;;;;;14.40;11.27;;;11.80;10.20;;;;;;5019558;28;20224;-76
2023/04/16 01:14:35;;;;;;;21.30;11.13;;;9.90;6.20;;;;;;5013314;28;20214;-75
2023/04/16 01:17:01;;;;;;;15.27;11.10;;;9.90;8.70;;;;;;5016429;28;20274;-77
2023/04/16 01:19:29;;;;;;;14.77;11.30;;;9.90;10.60;;;;;;5018521;28;20865;-76
2023/04/16 01:21:55;;;;;;;16.37;11.73;;;9.90;9.60;;;;;;5022548;28;20438;-75
2023/04/16 01:24:21;;;;;;;16.07;11.70;;;9.90;7.30;;;;;;5013649;28;20570;-75
2023/04/16 01:26:46;;;;;;;18.23;11.97;;;9.90;9.70;;;;;;5012215;28;20668;-76
2023/04/16 01:29:12;;;;;;;24.93;12.50;;;9.90;8.70;;;;;;5027635;28;20193;-76
2023/04/16 01:31:37;;;;;;;17.40;12.30;;;9.90;6.20;;;;;;5016280;28;20265;-75
2023/04/16 01:34:03;;;;;;;16.53;11.60;;;9.80;4.60;;;;;;5015117;28;20223;-75
2023/04/16 01:36:28;;;;;;;17.40;12.30;;;9.60;7.00;;;;;;5017290;28;20186;-76
2023/04/16 01:38:54;;;;;;;17.90;12.30;;;9.80;8.00;;;;;;5011230;28;20206;-76
2023/04/16 01:41:19;;;;;;;17.57;12.27;;;9.80;9.40;;;;;;5013732;28;20220;-75
2023/04/16 01:43:45;;;;;;;17.90;13.03;;;9.80;5.50;;;;;;5018339;28;20687;-76
2023/04/16 01:46:19;;;;;;;19.43;13.13;;;9.80;7.50;;;;;;5015588;28;20259;-75
2023/04/16 01:48:45;;;;;;;20.13;13.07;;;9.60;9.90;;;;;;5015492;28;20186;-75
2023/04/16 01:51:10;;;;;;;23.37;13.90;;;9.80;10.20;;;;;;5019168;28;20463;-75
2023/04/16 01:53:36;;;;;;;21.87;14.50;;;9.80;9.90;;;;;;5010159;28;20202;-75
2023/04/16 01:56:02;;;;;;;21.97;13.30;;;9.70;7.90;;;;;;5012133;28;20214;-75
2023/04/16 01:58:29;;;;;;;24.00;13.77;;;9.70;9.60;;;;;;5034328;28;20284;-75
2023/04/16 02:00:54;;;;;;;20.13;13.73;;;9.70;12.70;;;;;;5011392;28;20237;-75
2023/04/16 02:03:23;;;;;;;19.60;13.10;;;9.80;12.50;;;;;;5008089;28;20788;-75
2023/04/16 02:05:49;;;;;;;22.50;13.33;;;9.80;9.30;;;;;;5011435;28;20279;-74
2023/04/16 02:08:15;;;;;;;21.90;13.80;;;9.80;9.20;;;;;;5012995;28;20437;-73
2023/04/16 02:10:40;;;;;;;19.43;13.80;;;9.70;13.50;;;;;;5010456;28;21004;-75
2023/04/16 02:13:06;;;;;;;20.50;13.73;;;9.70;10.60;;;;;;5018668;28;20201;-77
2023/04/16 02:15:31;;;;;;;29.30;14.80;;;9.70;8.80;;;;;;5016523;28;20220;-75
2023/04/16 02:17:57;;;;;;;20.43;13.40;;;9.70;11.20;;;;;;5011117;28;20193;-75
2023/04/16 02:20:22;;;;;;;18.97;12.40;;;9.70;8.70;;;;;;5008731;28;20214;-75
2023/04/16 02:22:48;;;;;;;21.23;13.07;;;9.70;10.30;;;;;;5012104;28;20526;-75
2023/04/16 02:25:13;;;;;;;19.93;13.00;;;9.70;10.40;;;;;;5011972;28;20611;-75
2023/04/16 02:27:39;;;;;;;21.30;13.97;;;9.70;13.30;;;;;;5010644;28;20191;-75
2023/04/16 02:30:05;;;;;;;21.60;13.60;;;9.70;14.10;;;;;;5009807;28;20190;-74
2023/04/16 02:32:31;;;;;;;23.00;12.93;;;9.70;14.70;;;;;;5012140;28;20197;-75
2023/04/16 02:34:56;;;;;;;24.17;14.13;;;9.70;13.50;;;;;;5010953;28;20457;-77
2023/04/16 02:37:23;;;;;;;22.63;14.20;;;9.70;15.70;;;;;;5017824;28;20643;-75
2023/04/16 02:39:49;;;;;;;22.93;14.03;;;9.70;18.20;;;;;;5017278;28;20206;-76
2023/04/16 02:42:15;;;;;;;23.73;14.90;;;9.70;16.00;;;;;;5011329;28;20439;-77
2023/04/16 02:44:40;;;;;;;24.27;14.43;;;9.60;15.90;;;;;;5014582;28;20213;-76
2023/04/16 02:47:06;;;;;;;21.83;13.67;;;9.60;18.70;;;;;;5010841;28;20445;-75
2023/04/16 02:49:32;;;;;;;22.87;14.30;;;9.60;18.70;;;;;;5018210;28;20256;-75
2023/04/16 02:51:57;;;;;;;25.40;14.30;;;9.60;18.40;;;;;;5011992;28;20244;-75
2023/04/16 02:54:23;;;;;;;22.70;14.43;;;9.60;18.60;;;;;;5007911;28;20206;-75
2023/04/16 02:56:48;;;;;;;24.30;14.03;;;9.70;19.90;;;;;;5013708;28;20494;-75
2023/04/16 02:59:14;;;;;;;26.70;14.73;;;9.70;19.90;;;;;;5015845;28;20549;-75
2023/04/16 03:01:39;;;;;;;25.40;14.87;;;9.70;18.50;;;;;;5007769;28;20230;-75
2023/04/16 03:04:05;;;;;;;25.33;14.93;;;9.70;18.70;;;;;;5010710;28;20229;-75
2023/04/16 03:06:30;;;;;;;21.70;13.70;;;9.60;19.10;;;;;;5009177;28;20317;-75
2023/04/16 03:08:56;;;;;;;24.83;14.87;;;9.70;20.60;;;;;;5012189;28;20259;-77
2023/04/16 03:11:22;;;;;;;21.97;14.43;;;9.70;17.80;;;;;;5015332;28;20198;-74
2023/04/16 03:13:48;;;;;;;22.57;14.73;;;9.60;14.30;;;;;;5019415;28;20194;-76
2023/04/16 03:16:15;;;;;;;25.63;14.93;;;9.60;14.70;;;;;;5010156;28;20204;-75
2023/04/16 03:18:40;;;;;;;24.17;14.60;;;9.60;16.60;;;;;;5009963;28;20301;-76
2023/04/16 03:21:06;;;;;;;24.60;15.33;;;9.50;13.50;;;;;;5013117;28;20529;-75
2023/04/16 03:23:32;;;;;;;23.27;14.53;;;9.50;14.20;;;;;;5007752;28;20186;-75
2023/04/16 03:25:57;;;;;;;21.50;13.60;;;9.50;15.00;;;;;;5009748;28;20664;-75
2023/04/16 03:28:23;;;;;;;23.07;14.93;;;9.60;17.20;;;;;;5008646;28;20190;-75
2023/04/16 03:30:52;;;;;;;24.93;14.53;;;9.60;16.50;;;;;;5009923;28;20179;-76
2023/04/16 03:33:19;;;;;;;25.70;15.07;;;9.60;15.00;;;;;;5024846;28;20190;-75
2023/04/16 03:35:45;;;;;;;23.80;14.23;;;9.60;13.60;;;;;;5009709;28;20524;-75
2023/04/16 03:38:11;;;;;;;23.57;14.50;;;9.60;14.70;;;;;;5009549;28;20878;-75
2023/04/16 03:40:36;;;;;;;24.23;15.10;;;9.60;15.30;;;;;;5007615;28;20222;-76
2023/04/16 03:43:02;;;;;;;24.50;14.67;;;9.60;15.50;;;;;;5010438;28;20194;-75
2023/04/16 03:45:27;;;;;;;24.10;14.47;;;9.60;11.70;;;;;;5009192;28;20230;-75
2023/04/16 03:47:53;;;;;;;22.10;14.17;;;9.50;13.10;;;;;;5009539;28;20189;-76
2023/04/16 03:50:18;;;;;;;21.97;14.63;;;9.60;13.50;;;;;;5008487;28;20190;-75
2023/04/16 03:52:45;;;;;;;26.57;15.60;;;9.50;12.90;;;;;;5008470;28;20187;-75
2023/04/16 03:55:11;;;;;;;20.40;14.07;;;9.50;9.10;;;;;;5012159;28;20267;-75
2023/04/16 03:57:37;;;;;;;21.83;14.63;;;9.50;12.80;;;;;;5010384;28;20428;-75
2023/04/16 04:00:03;;;;;;;23.37;14.60;;;9.50;12.40;;;;;;5009892;28;20676;-77
2023/04/16 04:02:28;;;;;;;24.80;15.07;;;9.50;14.20;;;;;;5008232;28;20620;-75
2023/04/16 04:04:54;;;;;;;25.00;15.00;;;9.50;9.70;;;;;;5006679;28;20445;-75
2023/04/16 04:07:19;;;;;;;28.27;15.17;;;9.50;15.30;;;;;;5014505;28;20182;-76
2023/04/16 04:09:45;;;;;;;29.27;16.17;;;9.50;15.20;;;;;;5015698;28;20221;-75
2023/04/16 04:12:10;;;;;;;23.67;14.80;;;9.80;13.20;;;;;;5013120;28;20216;-75
2023/04/16 04:14:38;;;;;;;26.93;16.20;;;9.50;9.50;;;;;;5028244;28;20201;-75
2023/04/16 04:17:04;;;;;;;24.37;15.20;;;9.50;12.70;;;;;;5008253;28;20194;-75
2023/04/16 04:19:30;;;;;;;23.17;14.83;;;9.60;13.50;;;;;;5012634;28;21015;-75
2023/04/16 04:21:55;;;;;;;28.23;16.07;;;9.60;14.70;;;;;;5007277;28;20437;-75
2023/04/16 04:24:21;;;;;;;24.00;15.77;;;9.50;10.60;;;;;;5029352;28;20204;-75
2023/04/16 04:26:46;;;;;;;25.00;15.50;;;9.50;13.30;;;;;;5012482;28;20174;-75
2023/04/16 04:29:12;;;;;;;26.97;15.30;;;9.50;12.60;;;;;;5019121;28;20190;-75
2023/04/16 04:31:38;;;;;;;24.97;15.27;;;9.50;12.40;;;;;;5007117;28;20186;-75
2023/04/16 04:34:03;;;;;;;24.80;15.97;;;9.50;13.60;;;;;;5007799;28;20603;-75
2023/04/16 04:36:29;;;;;;;28.53;16.00;;;9.50;15.50;;;;;;5008467;28;20189;-75
2023/04/16 04:38:55;;;;;;;26.63;16.20;;;9.50;11.80;;;;;;5007464;28;20747;-75
2023/04/16 04:41:20;;;;;;;24.87;15.00;;;9.50;13.50;;;;;;5007726;28;20537;-75
2023/04/16 04:43:46;;;;;;;25.37;14.93;;;9.50;9.50;;;;;;5007166;28;20193;-75
2023/04/16 04:46:11;;;;;;;25.53;14.80;;;9.50;11.20;;;;;;5005791;28;20679;-75
2023/04/16 04:48:37;;;;;;;26.37;15.17;;;9.50;10.90;;;;;;5019866;28;20182;-75
2023/04/16 04:51:03;;;;;;;22.17;13.97;;;9.50;10.00;;;;;;5008946;28;20620;-75
2023/04/16 04:53:28;;;;;;;24.83;15.20;;;9.50;11.90;;;;;;5008592;28;20182;-76
2023/04/16 04:55:54;;;;;;;27.97;16.33;;;9.50;11.10;;;;;;5021415;28;20209;-75
2023/04/16 04:58:20;;;;;;;23.73;15.07;;;9.60;13.30;;;;;;5009040;28;20183;-76
2023/04/16 05:00:48;;;;;;;24.00;15.00;;;9.50;10.80;;;;;;5006197;28;20870;-76
2023/04/16 05:03:19;;;;;;;26.30;15.50;;;9.50;10.60;;;;;;5008423;28;20616;-76
2023/04/16 05:05:44;;;;;;;23.33;14.23;;;9.60;10.70;;;;;;5009521;28;20460;-75
2023/04/16 05:08:10;;;;;;;25.27;14.27;;;9.60;10.60;;;;;;5006738;28;20891;-76
2023/04/16 05:10:35;;;;;;;25.40;15.67;;;9.60;10.90;;;;;;5011569;28;20182;-75
2023/04/16 05:13:01;;;;;;;24.63;14.70;;;9.70;10.80;;;;;;5030544;28;20186;-75
2023/04/16 05:15:26;;;;;;;22.50;14.50;;;9.70;6.90;;;;;;5012923;28;20246;-75
2023/04/16 05:17:52;;;;;;;23.73;14.60;;;9.70;6.60;;;;;;5007966;28;20189;-75
2023/04/16 05:20:17;;;;;;;27.83;15.23;;;9.70;6.10;;;;;;5009010;28;20206;-75
2023/04/16 05:22:43;;;;;;;25.47;15.17;;;9.80;4.60;;;;;;5021475;28;20179;-75
2023/04/16 05:25:09;;;;;;;22.03;13.50;;;9.80;3.30;;;;;;5022020;28;20210;-75
2023/04/16 05:27:35;;;;;;;25.33;14.57;;;9.80;3.70;;;;;;5008524;28;20254;-75
2023/04/16 05:30:01;;;;;;;27.50;15.00;;;9.70;5.00;;;;;;5010102;28;20209;-75
2023/04/16 05:32:27;;;;;;;24.37;14.60;;;9.70;5.80;;;;;;5007471;28;20923;-75
2023/04/16 05:34:52;;;;;;;25.93;14.67;;;9.70;4.20;;;;;;5022541;28;20537;-74
2023/04/16 05:37:18;;;;;;;23.03;15.00;;;9.80;4.40;;;;;;5009999;28;20190;-75
2023/04/16 05:39:43;;;;;;;25.97;14.37;;;9.90;4.10;;;;;;5017664;28;20206;-76
2023/04/16 05:42:09;;;;;;;20.50;13.50;;;9.90;1.70;;;;;;5013478;28;20465;-75
2023/04/16 05:44:35;;;;;;;24.90;13.77;;;10.00;1.00;;;;;;5011845;28;20202;-74
2023/04/16 05:47:00;;;;;;;23.70;13.87;;;10.00;1.00;;;;;;5009632;28;20623;-76
2023/04/16 05:49:25;;;;;;;21.20;13.07;;;10.00;1.00;;;;;;5020468;28;20198;-75
2023/04/16 05:51:51;;;;;;;23.30;13.07;;;10.00;1.00;;;;;;5011116;28;20273;-75
2023/04/16 05:54:17;;;;;;;23.30;14.03;;;10.10;1.00;;;;;;5011132;28;20215;-75
2023/04/16 05:56:42;;;;;;;20.43;12.60;;;10.10;1.00;;;;;;5011739;28;20182;-75
2023/04/16 05:59:08;;;;;;;23.30;13.30;;;10.20;1.00;;;;;;5025922;28;20206;-75
2023/04/16 06:01:33;;;;;;;23.00;12.67;;;10.30;1.00;;;;;;5008860;28;20644;-75
2023/04/16 06:03:59;;;;;;;20.23;12.30;;;10.30;1.00;;;;;;5017066;28;20406;-72
2023/04/16 06:06:26;;;;;;;22.53;12.90;;;10.30;1.00;;;;;;5015287;28;20187;-74
2023/04/16 06:08:51;;;;;;;17.63;11.77;;;10.30;1.00;;;;;;5011037;28;20193;-74
2023/04/16 06:11:17;;;;;;;18.77;12.80;;;10.30;1.00;;;;;;5015797;28;20540;-75
2023/04/16 06:13:43;;;;;;;20.40;12.77;;;10.90;1.00;;;;;;5010577;28;20179;-74
2023/04/16 06:16:08;;;;;;;20.33;12.87;;;10.60;1.00;;;;;;5007150;28;20252;-74
2023/04/16 06:18:34;;;;;;;18.57;11.53;;;10.70;1.00;;;;;;5014874;28;20554;-74
2023/04/16 06:20:59;;;;;;;17.23;11.00;;;10.70;1.00;;;;;;5014476;28;20271;-76
2023/04/16 06:23:25;;;;;;;20.07;12.47;;;10.80;1.00;;;;;;5012109;28;20217;-75
2023/04/16 06:25:50;;;;;;;17.90;11.73;;;10.80;1.00;;;;;;5010220;28;20572;-75
2023/04/16 06:28:16;;;;;;;19.87;11.30;;;10.70;1.00;;;;;;5012097;28;20201;-74
2023/04/16 06:30:41;;;;;;;21.33;10.70;;;10.70;1.00;;;;;;5015351;28;20183;-74
2023/04/16 06:33:07;;;;;;;16.27;11.03;;;10.80;1.00;;;;;;5011430;28;20194;-74
2023/04/16 06:35:32;;;;;;;15.90;10.83;;;10.80;1.00;;;;;;5016307;28;20233;-73
2023/04/16 06:37:58;;;;;;;16.33;10.83;;;10.70;1.00;;;;;;5013194;28;20577;-76
2023/04/16 06:40:23;;;;;;;15.47;11.03;;;10.80;1.00;;;;;;5013402;28;20286;-77
2023/04/16 06:42:49;;;;;;;16.37;11.40;;;10.80;1.00;;;;;;5013157;28;20236;-74
2023/04/16 06:45:15;;;;;;;16.90;11.13;;;10.80;1.00;;;;;;5012319;28;20206;-75
2023/04/16 06:47:40;;;;;;;18.10;11.10;;;11.20;1.00;;;;;;5012540;28;20287;-73
2023/04/16 06:50:06;;;;;;;14.50;10.17;;;10.80;1.00;;;;;;5011792;28;20439;-75
2023/04/16 06:52:32;;;;;;;19.70;11.07;;;10.80;1.00;;;;;;5012408;28;20187;-75
2023/04/16 06:54:57;;;;;;;16.67;10.63;;;10.80;1.00;;;;;;5011027;28;20821;-74
2023/04/16 06:57:23;;;;;;;16.20;10.77;;;10.80;1.00;;;;;;5011244;28;20197;-74
2023/04/16 06:59:49;;;;;;;16.03;10.30;;;10.90;1.00;;;;;;5009644;28;20278;-76
2023/04/16 07:02:14;;;;;;;13.77;9.53;;;10.80;1.00;;;;;;5010778;28;20637;-77
2023/04/16 07:04:40;;;;;;;16.60;10.03;;;11.30;1.00;;;;;;5017118;28;20198;-77
2023/04/16 07:07:05;;;;;;;15.33;10.40;;;11.70;1.00;;;;;;5012650;28;20213;-76
2023/04/16 07:09:31;;;;;;;15.03;10.13;;;11.80;1.00;;;;;;5068780;22;20229;-79
2023/04/16 07:11:56;;;;;;;16.00;10.37;;;11.80;1.00;;;;;;5073990;22;20268;-74
2023/04/16 07:16:59;;;;;;;22.53;10.80;;;11.60;1.00;;;;;;5062744;22;20700;-74
2023/04/16 07:19:29;;;;;;;15.90;10.30;;;11.50;1.00;;;;;;5026787;28;20460;-71
2023/04/16 07:21:54;;;;;;;20.23;11.43;;;11.50;1.00;;;;;;5028846;28;20184;-72
2023/04/16 07:24:20;;;;;;;16.80;10.60;;;11.40;1.00;;;;;;5028311;28;20448;-76
2023/04/16 07:26:46;;;;;;;16.57;11.10;;;11.20;1.00;;;;;;5013883;28;20187;-74
2023/04/16 07:29:12;;;;;;;14.77;10.10;;;11.20;1.00;;;;;;5018800;28;20190;-74
2023/04/16 07:31:37;;;;;;;17.23;10.73;;;11.20;1.00;;;;;;5043265;28;20430;-75
2023/04/16 07:34:03;;;;;;;18.50;10.40;;;11.10;1.00;;;;;;5020043;28;20197;-76
2023/04/16 07:36:29;;;;;;;17.93;11.40;;;11.70;1.00;;;;;;5015868;28;20203;-76
2023/04/16 07:38:55;;;;;;;21.63;13.53;;;11.10;1.00;;;;;;5006533;28;20220;-75
2023/04/16 07:41:20;;;;;;;24.43;13.37;;;11.10;1.00;;;;;;5006004;28;20679;-75
2023/04/16 07:43:46;;;;;;;23.00;13.10;;;11.20;1.00;;;;;;5007474;28;20430;-76
2023/04/16 07:46:11;;;;;;;23.27;13.23;;;11.20;1.00;;;;;;5041080;28;20258;-77
2023/04/16 07:48:37;;;;;;;19.50;12.50;;;11.30;1.00;;;;;;5008549;28;20190;-75
2023/04/16 07:51:02;;;;;;;22.07;13.03;;;11.40;1.00;;;;;;5008776;28;20189;-76
2023/04/16 07:53:28;;;;;;;19.77;11.73;;;11.40;1.00;;;;;;5009287;28;20644;-76
2023/04/16 07:55:53;;;;;;;18.23;11.90;;;11.40;1.00;;;;;;5041314;28;20207;-76
2023/04/16 07:58:19;;;;;;;19.30;11.60;;;11.40;1.00;;;;;;5009737;28;20217;-76
2023/04/16 08:00:45;;;;;;;20.33;11.77;;;11.40;1.00;;;;;;5009119;28;20261;-76
2023/04/16 08:03:10;;;;;;;19.90;11.50;;;11.30;1.00;;;;;;5009712;28;20233;-77
2023/04/16 08:05:36;;;;;;;20.90;12.17;;;11.20;1.00;;;;;;5009913;28;20229;-76
2023/04/16 08:08:01;;;;;;;23.77;12.63;;;11.10;1.00;;;;;;5001272;28;20518;-77
2023/04/16 08:10:27;;;;;;;19.90;12.47;;;11.10;1.00;;;;;;5008604;28;20191;-74
2023/04/16 08:12:53;;;;;;;19.80;12.33;;;11.10;1.00;;;;;;5006516;28;20221;-74
2023/04/16 08:15:19;;;;;;;22.53;12.50;;;11.00;1.00;;;;;;5010210;28;20225;-75
2023/04/16 08:17:44;;;;;;;23.50;13.40;;;10.90;1.00;;;;;;5011580;28;20182;-74
2023/04/16 08:20:10;;;;;;;21.13;12.33;;;11.00;1.00;;;;;;5010070;28;20272;-74
2023/04/16 08:22:35;;;;;;;19.37;11.70;;;11.00;1.00;;;;;;5010422;28;20186;-74
2023/04/16 08:25:03;;;;;;;20.30;13.30;;;11.10;1.00;;;;;;5009614;28;20198;-74
2023/04/16 08:27:28;;;;;;;22.67;13.33;;;11.20;1.00;;;;;;5010233;28;20195;-74
2023/04/16 08:29:53;;;;;;;23.00;11.77;;;11.20;1.00;;;;;;5010606;28;20463;-74
2023/04/16 08:32:19;;;;;;;21.33;12.03;;;11.10;1.00;;;;;;5009870;28;20198;-74
2023/04/16 08:34:45;;;;;;;19.80;11.80;;;11.00;1.00;;;;;;5009216;28;20217;-74
2023/04/16 08:37:10;;;;;;;19.87;12.17;;;11.10;1.00;;;;;;5009053;28;20190;-74
2023/04/16 08:39:36;;;;;;;19.87;12.67;;;11.20;1.00;;;;;;5010142;28;20221;-74
2023/04/16 08:42:04;;;;;;;22.70;11.87;;;11.20;1.00;;;;;;5007967;28;20542;-75
2023/04/16 08:44:36;;;;;;;21.60;13.30;;;11.20;1.00;;;;;;5041048;28;20449;-74
2023/04/16 08:47:02;;;;;;;22.70;12.23;;;11.30;1.00;;;;;;5009896;28;20796;-74
2023/04/16 08:49:28;;;;;;;19.67;12.33;;;11.30;1.00;;;;;;5009314;28;20627;-74
2023/04/16 08:51:56;;;;;;;18.70;11.70;;;11.40;1.00;;;;;;5009041;28;20464;-74
2023/04/16 08:54:30;;;;;;;18.97;12.20;;;11.60;1.00;;;;;;5009304;28;20465;-74
2023/04/16 08:56:58;;;;;;;25.93;13.97;;;11.60;1.00;;;;;;5009569;28;20510;-74
2023/04/16 08:59:25;;;;;;;26.63;13.17;;;11.60;1.00;;;;;;5011780;28;20469;-74
2023/04/16 09:01:54;;;;;;;19.27;11.70;;;11.60;1.00;;;;;;5008918;28;20460;-75
2023/04/16 09:04:21;;;;;;;17.67;11.30;;;11.60;1.00;;;;;;5007982;28;20723;-74
2023/04/16 09:06:48;;;;;;;17.80;11.77;;;11.50;1.00;;;;;;5007679;28;20433;-74
2023/04/16 09:09:16;;;;;;;21.17;12.00;;;11.50;1.00;;;;;;5007837;28;20468;-74
2023/04/16 09:11:44;;;;;;;17.17;10.80;;;11.50;1.00;;;;;;5040757;28;20464;-73
2023/04/16 09:14:10;;;;;;;17.80;10.20;;;11.40;1.00;;;;;;5014169;28;20465;-74
2023/04/16 09:16:36;;;;;;;16.07;10.23;;;11.40;1.00;;;;;;5045962;28;20441;-75
2023/04/16 09:19:02;;;;;;;21.23;11.17;;;11.40;1.00;;;;;;5012688;28;20464;-74
2023/04/16 09:21:28;;;;;;;16.33;10.90;;;11.70;1.00;;;;;;5013087;28;20731;-76
2023/04/16 09:23:54;;;;;;;17.63;11.10;;;11.40;1.00;;;;;;5014019;28;20702;-74
2023/04/16 09:26:20;;;;;;;20.27;10.27;;;11.40;1.00;;;;;;5014076;28;20194;-74
2023/04/16 09:28:49;;;;;;;15.53;10.20;;;11.40;1.00;;;;;;5013168;28;20273;-74
2023/04/16 09:31:16;;;;;;;19.03;11.03;;;11.50;1.00;;;;;;5014035;28;20792;-74
2023/04/16 09:33:59;;;;;;;17.10;10.97;;;11.60;1.00;;;;;;5012602;28;20430;-74
2023/04/16 09:36:25;;;;;;;18.17;11.00;;;11.50;1.00;;;;;;5007359;28;20504;-76
2023/04/16 09:38:51;;;;;;;18.00;10.70;;;11.50;1.00;;;;;;5014639;28;20449;-74
2023/04/16 09:41:18;;;;;;;15.90;10.50;;;11.60;1.00;;;;;;5013158;28;20441;-74
2023/04/16 09:44:03;;;;;;;16.57;10.10;;;11.60;1.00;;;;;;5027509;28;20422;-74
2023/04/16 09:46:39;;;;;;;16.30;10.53;;;11.60;1.00;;;;;;5012694;28;20429;-74
2023/04/16 09:49:16;;;;;;;14.30;10.07;;;11.50;1.00;;;;;;5012791;28;20927;-74
2023/04/16 09:51:44;;;;;;;15.20;10.03;;;11.50;1.00;;;;;;5012701;28;20433;-74
2023/04/16 09:54:10;;;;;;;15.00;9.87;;;11.50;1.00;;;;;;5012155;28;20457;-74
2023/04/16 09:56:43;;;;;;;16.60;10.03;;;11.50;1.00;;;;;;5012792;28;20437;-74
2023/04/16 09:59:20;;;;;;;13.70;9.87;;;11.40;1.00;;;;;;5010136;28;20217;-74
2023/04/16 10:01:48;;;;;;;15.07;9.87;;;11.20;1.00;;;;;;5010527;28;20437;-74
2023/04/16 10:04:14;;;;;;;17.83;9.70;;;11.20;1.00;;;;;;5010580;28;20547;-74
2023/04/16 10:06:39;;;;;;;15.03;10.07;;;11.20;1.00;;;;;;5012039;28;20508;-75
2023/04/16 10:09:09;;;;;;;15.07;9.30;;;11.40;1.00;;;;;;5011598;28;20441;-75
2023/04/16 10:11:35;;;;;;;14.20;9.83;;;11.60;1.00;;;;;;5011009;28;20186;-74
2023/04/16 10:14:02;;;;;;;14.70;10.37;;;11.70;1.00;;;;;;5011903;28;20461;-74
2023/04/16 10:16:28;;;;;;;18.70;10.30;;;11.70;1.00;;;;;;5012924;28;20479;-74
2023/04/16 10:18:55;;;;;;;13.47;9.30;;;11.80;1.00;;;;;;5010923;28;20499;-74
2023/04/16 10:21:21;;;;;;;14.00;9.97;;;11.80;1.00;;;;;;5033074;22;20503;-74
2023/04/16 10:23:48;;;;;;;13.77;9.80;;;11.70;1.00;;;;;;5013672;28;20437;-73
2023/04/16 10:26:14;;;;;;;13.43;10.17;;;11.70;1.00;;;;;;5025339;28;20178;-73
2023/04/16 10:28:40;;;;;;;15.77;9.87;;;11.60;1.00;;;;;;5028359;28;21081;-74
2023/04/16 10:31:07;;;;;;;17.37;11.47;;;11.60;1.00;;;;;;5031111;28;20275;-75
2023/04/16 10:33:40;;;;;;;17.10;10.77;;;11.50;1.00;;;;;;5034435;28;20931;-75
2023/04/16 10:36:12;;;;;;;19.13;11.27;;;11.60;1.00;;;;;;5024340;28;20543;-77
2023/04/16 10:38:45;;;;;;;17.80;11.30;;;11.60;1.00;;;;;;5029515;28;20420;-76
2023/04/16 10:41:11;;;;;;;25.37;11.73;;;11.60;1.00;;;;;;5023343;28;20433;-76
2023/04/16 10:43:43;;;;;;;20.13;11.57;;;11.60;1.00;;;;;;5031767;28;20467;-77
2023/04/16 10:46:18;;;;;;;17.23;11.47;;;11.50;1.00;;;;;;5023246;28;20664;-77
2023/04/16 10:48:44;;;;;;;19.80;10.80;;;11.40;1.00;;;;;;5024583;28;21026;-77
2023/04/16 10:51:24;;;;;;;21.30;12.03;;;11.40;1.00;;;;;;5029259;28;20472;-77
2023/04/16 10:53:50;;;;;;;21.03;11.83;;;11.30;1.00;;;;;;5030680;28;20444;-76
2023/04/16 10:56:26;;;;;;;22.40;12.10;;;11.40;1.00;;;;;;5028804;28;20498;-76
2023/04/16 10:58:54;;;;;;;19.30;12.40;;;11.40;1.00;;;;;;5027114;28;20185;-77
2023/04/16 11:01:28;;;;;;;19.33;12.37;;;11.30;1.00;;;;;;5020459;28;20952;-77
2023/04/16 11:03:54;;;;;;;19.60;11.90;;;11.30;1.00;;;;;;5028517;28;20416;-77
2023/04/16 11:06:25;;;;;;;20.53;12.57;;;11.30;1.00;;;;;;5027742;28;20962;-77
2023/04/16 11:08:51;;;;;;;22.20;12.07;;;11.30;1.00;;;;;;5030470;28;20185;-77
2023/04/16 11:11:18;;;;;;;23.60;12.73;;;11.30;1.00;;;;;;5031151;28;20543;-77
2023/04/16 11:13:44;;;;;;;17.10;12.10;;;11.40;1.00;;;;;;5029103;28;20436;-77
2023/04/16 11:16:12;;;;;;;20.70;12.10;;;11.30;1.00;;;;;;5028581;28;20429;-76
2023/04/16 11:18:41;;;;;;;19.87;12.00;;;11.50;1.00;;;;;;5028700;28;20429;-77
2023/04/16 11:21:11;;;;;;;20.10;12.27;;;11.60;1.00;;;;;;5024928;28;21030;-77
2023/04/16 11:23:51;;;;;;;18.13;12.13;;;11.60;1.00;;;;;;5026336;28;20432;-76
2023/04/16 11:26:27;;;;;;;20.87;12.73;;;11.60;1.00;;;;;;5022488;28;20432;-77
2023/04/16 11:28:59;;;;;;;21.57;13.47;;;11.60;1.00;;;;;;5026721;28;20432;-76
2023/04/16 11:31:26;;;;;;;22.23;14.27;;;11.70;1.00;;;;;;5026247;28;20447;-77
2023/04/16 11:33:54;;;;;;;23.57;14.73;;;11.60;1.00;;;;;;5028892;28;20498;-75
2023/04/16 11:36:20;;;;;;;26.50;14.37;;;11.60;1.00;;;;;;5030075;28;20845;-75
2023/04/16 11:38:46;;;;;;;22.63;13.90;;;11.60;1.00;;;;;;5030742;28;20463;-75
2023/04/16 11:41:20;;;;;;;22.97;14.20;;;11.70;1.00;;;;;;5022302;28;20186;-75
2023/04/16 11:43:46;;;;;;;21.47;13.93;;;11.80;1.00;;;;;;5030216;28;20427;-77
2023/04/16 11:46:11;;;;;;;23.50;13.97;;;11.70;1.00;;;;;;5024149;28;20428;-75
2023/04/16 11:48:46;;;;;;;23.60;13.87;;;11.70;1.00;;;;;;5029750;28;20260;-74
2023/04/16 11:51:12;;;;;;;22.37;13.87;;;10.00;1.00;;;;;;5023777;28;20181;-74
2023/04/16 11:53:48;;;;;;;21.40;13.40;;;11.90;1.00;;;;;;5028116;28;20483;-75
2023/04/16 11:56:14;;;;;;;21.50;13.57;;;12.20;1.00;;;;;;5021769;28;20189;-74
2023/04/16 11:58:40;;;;;;;21.93;13.40;;;11.90;1.00;;;;;;5026316;28;20538;-75
2023/04/16 12:01:07;;;;;;;22.07;14.73;;;11.90;1.00;;;;;;5024269;28;20220;-74
2023/04/16 12:03:42;;;;;;;24.93;15.10;;;11.90;1.00;;;;;;5026730;28;20592;-75
2023/04/16 12:06:08;;;;;;;26.23;14.30;;;11.90;1.00;;;;;;5028276;28;20439;-75
2023/04/16 12:08:34;;;;;;;26.20;14.70;;;11.80;1.00;;;;;;5030698;28;20506;-75
2023/04/16 12:10:59;;;;;;;24.13;14.73;;;13.90;1.00;;;;;;5026832;28;20428;-75
2023/04/16 12:13:25;;;;;;;22.37;14.30;;;12.00;1.00;;;;;;5028202;28;20235;-75
2023/04/16 12:15:53;;;;;;;24.00;14.77;;;12.20;1.00;;;;;;5028617;28;20237;-75
2023/04/16 12:18:21;;;;;;;24.70;15.13;;;12.10;1.00;;;;;;5030441;28;20181;-76
2023/04/16 12:20:47;;;;;;;24.20;15.57;;;12.20;1.00;;;;;;5027467;28;20468;-74
2023/04/16 12:23:24;;;;;;;26.23;14.53;;;12.20;1.00;;;;;;5025611;28;20441;-75
2023/04/16 12:25:50;;;;;;;23.37;15.37;;;12.20;1.00;;;;;;5029811;28;20197;-73
2023/04/16 12:28:37;;;;;;;25.73;14.80;;;12.10;1.00;;;;;;5028950;28;20424;-74
2023/04/16 12:31:03;;;;;;;27.13;15.13;;;12.10;1.00;;;;;;5023953;28;20958;-76
2023/04/16 12:33:29;;;;;;;24.20;15.57;;;12.10;1.00;;;;;;5029247;28;20417;-75
2023/04/16 12:35:55;;;;;;;24.27;15.40;;;12.10;1.00;;;;;;5027847;28;21025;-75
2023/04/16 12:38:21;;;;;;;28.00;15.20;;;12.10;1.00;;;;;;5029834;28;20440;-75